sensor_id;sensor_type;location;lat;lon;timestamp;P1;durP1;ratioP1;P2;durP2;ratioP2
15667;SDS011;7934;48.710;9.024;2023-08-06T00:01:20;3.40;;;2.83;;
15667;SDS011;7934;48.710;9.024;2023-08-06T00:03:49;2.47;;;2.27;;
15667;SDS011;7934;48.710;9.024;2023-08-06T00:06:16;2.50;;;2.30;;
15667;SDS011;7934;48.710;9.024;2023-08-06T00:08:43;3.80;;;2.80;;
15667;SDS011;7934;48.710;9.024;2023-08-06T00:11:10;3.93;;;2.50;;
15667;SDS011;7934;48.710;9.024;2023-08-06T00:13:38;3.10;;;2.33;;
15667;SDS011;7934;48.710;9.024;2023-08-06T00:16:09;2.40;;;2.30;;
15667;SDS011;7934;48.710;9.024;2023-08-06T00:18:36;3.27;;;2.30;;
15667;SDS011;7934;48.710;9.024;2023-08-06T00:21:05;2.90;;;2.70;;
15667;SDS011;7934;48.710;9.024;2023-08-06T00:23:32;2.80;;;2.60;;
15667;SDS011;7934;48.710;9.024;2023-08-06T00:25:59;4.13;;;2.90;;
15667;SDS011;7934;48.710;9.024;2023-08-06T00:28:26;3.03;;;2.83;;
15667;SDS011;7934;48.710;9.024;2023-08-06T00:30:53;2.77;;;2.60;;
15667;SDS011;7934;48.710;9.024;2023-08-06T00:33:20;3.33;;;2.90;;
15667;SDS011;7934;48.710;9.024;2023-08-06T00:35:48;5.67;;;2.80;;
15667;SDS011;7934;48.710;9.024;2023-08-06T00:38:16;2.57;;;2.47;;
15667;SDS011;7934;48.710;9.024;2023-08-06T00:40:43;3.50;;;2.60;;
15667;SDS011;7934;48.710;9.024;2023-08-06T00:43:10;4.03;;;2.73;;
15667;SDS011;7934;48.710;9.024;2023-08-06T00:45:38;3.13;;;2.60;;
15667;SDS011;7934;48.710;9.024;2023-08-06T00:48:05;3.53;;;2.60;;
15667;SDS011;7934;48.710;9.024;2023-08-06T00:50:32;3.07;;;2.87;;
15667;SDS011;7934;48.710;9.024;2023-08-06T00:53:00;2.50;;;2.30;;
15667;SDS011;7934;48.710;9.024;2023-08-06T00:55:29;3.80;;;2.77;;
15667;SDS011;7934;48.710;9.024;2023-08-06T00:57:56;3.43;;;2.30;;
15667;SDS011;7934;48.710;9.024;2023-08-06T01:00:24;2.67;;;2.57;;
15667;SDS011;7934;48.710;9.024;2023-08-06T01:02:51;2.80;;;2.70;;
15667;SDS011;7934;48.710;9.024;2023-08-06T01:05:18;2.90;;;2.63;;
15667;SDS011;7934;48.710;9.024;2023-08-06T01:07:51;3.00;;;2.80;;
15667;SDS011;7934;48.710;9.024;2023-08-06T01:10:27;2.63;;;2.53;;
15667;SDS011;7934;48.710;9.024;2023-08-06T01:13:00;2.50;;;2.30;;
15667;SDS011;7934;48.710;9.024;2023-08-06T01:15:32;2.70;;;2.50;;
15667;SDS011;7934;48.710;9.024;2023-08-06T01:17:59;2.63;;;2.50;;
15667;SDS011;7934;48.710;9.024;2023-08-06T01:20:29;5.23;;;2.40;;
15667;SDS011;7934;48.710;9.024;2023-08-06T01:22:56;2.47;;;2.37;;
15667;SDS011;7934;48.710;9.024;2023-08-06T01:25:24;2.50;;;2.40;;
15667;SDS011;7934;48.710;9.024;2023-08-06T01:27:56;2.53;;;2.43;;
15667;SDS011;7934;48.710;9.024;2023-08-06T01:30:27;2.47;;;2.30;;
15667;SDS011;7934;48.710;9.024;2023-08-06T01:32:57;3.33;;;2.90;;
15667;SDS011;7934;48.710;9.024;2023-08-06T01:35:25;3.03;;;2.43;;
15667;SDS011;7934;48.710;9.024;2023-08-06T01:37:55;3.60;;;2.90;;
15667;SDS011;7934;48.710;9.024;2023-08-06T01:40:22;3.30;;;2.30;;
15667;SDS011;7934;48.710;9.024;2023-08-06T01:42:50;2.40;;;2.30;;
15667;SDS011;7934;48.710;9.024;2023-08-06T01:45:17;2.90;;;2.70;;
15667;SDS011;7934;48.710;9.024;2023-08-06T01:47:44;2.67;;;2.37;;
15667;SDS011;7934;48.710;9.024;2023-08-06T01:50:11;2.57;;;2.40;;
15667;SDS011;7934;48.710;9.024;2023-08-06T01:52:38;2.50;;;2.30;;
15667;SDS011;7934;48.710;9.024;2023-08-06T01:55:07;11.27;;;3.43;;
15667;SDS011;7934;48.710;9.024;2023-08-06T01:57:34;3.30;;;2.20;;
15667;SDS011;7934;48.710;9.024;2023-08-06T02:00:02;2.57;;;2.33;;
15667;SDS011;7934;48.710;9.024;2023-08-06T02:02:29;3.27;;;2.57;;
15667;SDS011;7934;48.710;9.024;2023-08-06T02:04:57;2.70;;;2.50;;
15667;SDS011;7934;48.710;9.024;2023-08-06T02:07:24;2.67;;;2.47;;
15667;SDS011;7934;48.710;9.024;2023-08-06T02:09:51;4.60;;;2.83;;
15667;SDS011;7934;48.710;9.024;2023-08-06T02:12:20;2.50;;;2.40;;
15667;SDS011;7934;48.710;9.024;2023-08-06T02:14:47;4.40;;;2.50;;
15667;SDS011;7934;48.710;9.024;2023-08-06T02:17:14;3.93;;;2.37;;
15667;SDS011;7934;48.710;9.024;2023-08-06T02:19:41;2.77;;;2.63;;
15667;SDS011;7934;48.710;9.024;2023-08-06T02:22:08;4.97;;;2.70;;
15667;SDS011;7934;48.710;9.024;2023-08-06T02:24:36;4.93;;;2.63;;
15667;SDS011;7934;48.710;9.024;2023-08-06T02:27:03;2.53;;;2.30;;
15667;SDS011;7934;48.710;9.024;2023-08-06T02:29:31;2.87;;;2.40;;
15667;SDS011;7934;48.710;9.024;2023-08-06T02:31:59;3.20;;;2.90;;
15667;SDS011;7934;48.710;9.024;2023-08-06T02:34:27;4.43;;;2.73;;
15667;SDS011;7934;48.710;9.024;2023-08-06T02:36:54;5.23;;;2.90;;
15667;SDS011;7934;48.710;9.024;2023-08-06T02:39:21;4.23;;;2.83;;
15667;SDS011;7934;48.710;9.024;2023-08-06T02:41:48;3.20;;;3.00;;
15667;SDS011;7934;48.710;9.024;2023-08-06T02:44:16;2.47;;;2.37;;
15667;SDS011;7934;48.710;9.024;2023-08-06T02:46:45;3.13;;;2.33;;
15667;SDS011;7934;48.710;9.024;2023-08-06T02:49:12;2.77;;;2.53;;
15667;SDS011;7934;48.710;9.024;2023-08-06T02:51:39;3.00;;;2.80;;
15667;SDS011;7934;48.710;9.024;2023-08-06T02:54:06;2.93;;;2.70;;
15667;SDS011;7934;48.710;9.024;2023-08-06T02:56:33;2.40;;;2.20;;
15667;SDS011;7934;48.710;9.024;2023-08-06T02:59:00;2.43;;;2.33;;
15667;SDS011;7934;48.710;9.024;2023-08-06T03:01:28;3.00;;;2.33;;
15667;SDS011;7934;48.710;9.024;2023-08-06T03:03:56;7.17;;;2.20;;
15667;SDS011;7934;48.710;9.024;2023-08-06T03:06:23;2.90;;;2.37;;
15667;SDS011;7934;48.710;9.024;2023-08-06T03:08:50;2.77;;;2.50;;
15667;SDS011;7934;48.710;9.024;2023-08-06T03:11:18;2.63;;;2.43;;
15667;SDS011;7934;48.710;9.024;2023-08-06T03:13:45;2.13;;;2.03;;
15667;SDS011;7934;48.710;9.024;2023-08-06T03:16:12;2.17;;;2.07;;
15667;SDS011;7934;48.710;9.024;2023-08-06T03:18:39;2.20;;;2.00;;
15667;SDS011;7934;48.710;9.024;2023-08-06T03:21:07;2.37;;;2.17;;
15667;SDS011;7934;48.710;9.024;2023-08-06T03:23:35;3.07;;;2.27;;
15667;SDS011;7934;48.710;9.024;2023-08-06T03:26:03;2.33;;;2.23;;
15667;SDS011;7934;48.710;9.024;2023-08-06T03:28:30;3.77;;;2.00;;
15667;SDS011;7934;48.710;9.024;2023-08-06T03:31:00;4.30;;;2.10;;
15667;SDS011;7934;48.710;9.024;2023-08-06T03:33:27;4.10;;;2.27;;
15667;SDS011;7934;48.710;9.024;2023-08-06T03:35:54;2.40;;;2.20;;
15667;SDS011;7934;48.710;9.024;2023-08-06T03:38:23;3.00;;;1.90;;
15667;SDS011;7934;48.710;9.024;2023-08-06T03:40:51;1.97;;;1.73;;
15667;SDS011;7934;48.710;9.024;2023-08-06T03:43:18;2.43;;;2.23;;
15667;SDS011;7934;48.710;9.024;2023-08-06T03:45:45;2.13;;;2.03;;
15667;SDS011;7934;48.710;9.024;2023-08-06T03:48:12;2.67;;;2.47;;
15667;SDS011;7934;48.710;9.024;2023-08-06T03:50:39;4.67;;;1.90;;
15667;SDS011;7934;48.710;9.024;2023-08-06T03:53:06;1.70;;;1.70;;
15667;SDS011;7934;48.710;9.024;2023-08-06T03:55:35;1.80;;;1.80;;
15667;SDS011;7934;48.710;9.024;2023-08-06T03:58:02;2.40;;;2.20;;
15667;SDS011;7934;48.710;9.024;2023-08-06T04:00:29;5.50;;;2.07;;
15667;SDS011;7934;48.710;9.024;2023-08-06T04:02:56;3.03;;;2.23;;
15667;SDS011;7934;48.710;9.024;2023-08-06T04:05:23;6.40;;;2.30;;
15667;SDS011;7934;48.710;9.024;2023-08-06T04:07:51;3.00;;;2.07;;
15667;SDS011;7934;48.710;9.024;2023-08-06T04:10:18;2.50;;;1.80;;
15667;SDS011;7934;48.710;9.024;2023-08-06T04:12:46;3.73;;;2.20;;
15667;SDS011;7934;48.710;9.024;2023-08-06T04:15:14;5.77;;;1.67;;
15667;SDS011;7934;48.710;9.024;2023-08-06T04:17:41;1.90;;;1.80;;
15667;SDS011;7934;48.710;9.024;2023-08-06T04:20:08;4.13;;;1.73;;
15667;SDS011;7934;48.710;9.024;2023-08-06T04:22:35;3.70;;;2.00;;
15667;SDS011;7934;48.710;9.024;2023-08-06T04:25:03;3.17;;;2.10;;
15667;SDS011;7934;48.710;9.024;2023-08-06T04:27:30;3.13;;;1.80;;
15667;SDS011;7934;48.710;9.024;2023-08-06T04:29:58;3.30;;;2.30;;
15667;SDS011;7934;48.710;9.024;2023-08-06T04:32:26;3.53;;;2.00;;
15667;SDS011;7934;48.710;9.024;2023-08-06T04:34:55;4.87;;;2.03;;
15667;SDS011;7934;48.710;9.024;2023-08-06T04:37:22;2.20;;;1.97;;
15667;SDS011;7934;48.710;9.024;2023-08-06T04:39:49;1.90;;;1.70;;
15667;SDS011;7934;48.710;9.024;2023-08-06T04:42:16;4.23;;;1.93;;
15667;SDS011;7934;48.710;9.024;2023-08-06T04:44:43;1.80;;;1.70;;
15667;SDS011;7934;48.710;9.024;2023-08-06T04:47:11;2.20;;;2.03;;
15667;SDS011;7934;48.710;9.024;2023-08-06T04:49:38;3.50;;;1.80;;
15667;SDS011;7934;48.710;9.024;2023-08-06T04:52:05;4.70;;;1.93;;
15667;SDS011;7934;48.710;9.024;2023-08-06T04:54:33;2.60;;;1.80;;
15667;SDS011;7934;48.710;9.024;2023-08-06T04:57:00;1.60;;;1.60;;
15667;SDS011;7934;48.710;9.024;2023-08-06T04:59:27;1.57;;;1.50;;
15667;SDS011;7934;48.710;9.024;2023-08-06T05:01:54;4.73;;;1.57;;
15667;SDS011;7934;48.710;9.024;2023-08-06T05:04:23;4.70;;;1.67;;
15667;SDS011;7934;48.710;9.024;2023-08-06T05:06:50;2.10;;;1.67;;
15667;SDS011;7934;48.710;9.024;2023-08-06T05:09:17;1.67;;;1.57;;
15667;SDS011;7934;48.710;9.024;2023-08-06T05:11:45;1.70;;;1.60;;
15667;SDS011;7934;48.710;9.024;2023-08-06T05:14:12;2.40;;;1.50;;
15667;SDS011;7934;48.710;9.024;2023-08-06T05:16:39;1.50;;;1.30;;
15667;SDS011;7934;48.710;9.024;2023-08-06T05:19:06;3.03;;;1.43;;
15667;SDS011;7934;48.710;9.024;2023-08-06T05:21:34;2.80;;;1.10;;
15667;SDS011;7934;48.710;9.024;2023-08-06T05:24:02;2.10;;;1.17;;
15667;SDS011;7934;48.710;9.024;2023-08-06T05:26:29;1.60;;;1.20;;
15667;SDS011;7934;48.710;9.024;2023-08-06T05:28:56;1.63;;;1.27;;
15667;SDS011;7934;48.710;9.024;2023-08-06T05:31:23;2.93;;;0.90;;
15667;SDS011;7934;48.710;9.024;2023-08-06T05:33:50;1.43;;;1.00;;
15667;SDS011;7934;48.710;9.024;2023-08-06T05:36:18;1.10;;;0.90;;
15667;SDS011;7934;48.710;9.024;2023-08-06T05:38:46;1.33;;;1.00;;
15667;SDS011;7934;48.710;9.024;2023-08-06T05:41:14;1.40;;;1.20;;
15667;SDS011;7934;48.710;9.024;2023-08-06T05:43:41;1.50;;;0.70;;
15667;SDS011;7934;48.710;9.024;2023-08-06T05:46:08;1.70;;;0.97;;
15667;SDS011;7934;48.710;9.024;2023-08-06T05:48:35;3.80;;;0.80;;
15667;SDS011;7934;48.710;9.024;2023-08-06T05:51:02;0.80;;;0.80;;
15667;SDS011;7934;48.710;9.024;2023-08-06T05:53:29;2.53;;;0.80;;
15667;SDS011;7934;48.710;9.024;2023-08-06T05:55:58;1.70;;;0.70;;
15667;SDS011;7934;48.710;9.024;2023-08-06T05:58:25;2.00;;;0.90;;
15667;SDS011;7934;48.710;9.024;2023-08-06T06:00:54;1.03;;;0.60;;
15667;SDS011;7934;48.710;9.024;2023-08-06T06:03:21;1.60;;;0.90;;
15667;SDS011;7934;48.710;9.024;2023-08-06T06:05:48;2.87;;;1.03;;
15667;SDS011;7934;48.710;9.024;2023-08-06T06:08:15;1.47;;;1.03;;
15667;SDS011;7934;48.710;9.024;2023-08-06T06:10:42;2.60;;;0.70;;
15667;SDS011;7934;48.710;9.024;2023-08-06T06:13:11;2.27;;;0.90;;
15667;SDS011;7934;48.710;9.024;2023-08-06T06:15:38;1.60;;;0.60;;
15667;SDS011;7934;48.710;9.024;2023-08-06T06:18:05;2.37;;;1.03;;
15667;SDS011;7934;48.710;9.024;2023-08-06T06:20:32;1.37;;;0.67;;
15667;SDS011;7934;48.710;9.024;2023-08-06T06:22:59;1.60;;;0.83;;
15667;SDS011;7934;48.710;9.024;2023-08-06T06:25:27;1.37;;;0.90;;
15667;SDS011;7934;48.710;9.024;2023-08-06T06:27:54;2.13;;;0.80;;
15667;SDS011;7934;48.710;9.024;2023-08-06T06:30:22;0.80;;;0.80;;
15667;SDS011;7934;48.710;9.024;2023-08-06T06:32:49;1.73;;;0.73;;
15667;SDS011;7934;48.710;9.024;2023-08-06T06:35:16;2.33;;;1.03;;
15667;SDS011;7934;48.710;9.024;2023-08-06T06:37:44;1.03;;;0.83;;
15667;SDS011;7934;48.710;9.024;2023-08-06T06:40:11;1.47;;;0.70;;
15667;SDS011;7934;48.710;9.024;2023-08-06T06:42:38;2.03;;;0.90;;
15667;SDS011;7934;48.710;9.024;2023-08-06T06:45:06;0.70;;;0.70;;
15667;SDS011;7934;48.710;9.024;2023-08-06T06:47:34;0.50;;;0.50;;
15667;SDS011;7934;48.710;9.024;2023-08-06T06:50:01;1.80;;;0.63;;
15667;SDS011;7934;48.710;9.024;2023-08-06T06:52:29;1.03;;;0.70;;
15667;SDS011;7934;48.710;9.024;2023-08-06T06:54:56;0.83;;;0.73;;
15667;SDS011;7934;48.710;9.024;2023-08-06T06:57:23;2.33;;;0.80;;
15667;SDS011;7934;48.710;9.024;2023-08-06T06:59:50;0.87;;;0.87;;
15667;SDS011;7934;48.710;9.024;2023-08-06T07:02:17;1.00;;;0.83;;
15667;SDS011;7934;48.710;9.024;2023-08-06T07:04:46;1.50;;;0.70;;
15667;SDS011;7934;48.710;9.024;2023-08-06T07:07:13;1.93;;;0.93;;
15667;SDS011;7934;48.710;9.024;2023-08-06T07:09:40;0.60;;;0.60;;
15667;SDS011;7934;48.710;9.024;2023-08-06T07:12:08;1.70;;;0.80;;
15667;SDS011;7934;48.710;9.024;2023-08-06T07:14:35;0.70;;;0.70;;
15667;SDS011;7934;48.710;9.024;2023-08-06T07:17:02;0.40;;;0.40;;
15667;SDS011;7934;48.710;9.024;2023-08-06T07:19:30;1.10;;;1.00;;
15667;SDS011;7934;48.710;9.024;2023-08-06T07:21:58;1.10;;;0.57;;
15667;SDS011;7934;48.710;9.024;2023-08-06T07:24:25;0.60;;;0.60;;
15667;SDS011;7934;48.710;9.024;2023-08-06T07:26:52;0.70;;;0.70;;
15667;SDS011;7934;48.710;9.024;2023-08-06T07:29:19;0.60;;;0.60;;
15667;SDS011;7934;48.710;9.024;2023-08-06T07:31:47;0.73;;;0.60;;
15667;SDS011;7934;48.710;9.024;2023-08-06T07:34:15;2.20;;;0.47;;
15667;SDS011;7934;48.710;9.024;2023-08-06T07:36:43;0.40;;;0.40;;
15667;SDS011;7934;48.710;9.024;2023-08-06T07:39:11;0.30;;;0.30;;
15667;SDS011;7934;48.710;9.024;2023-08-06T07:41:38;0.30;;;0.30;;
15667;SDS011;7934;48.710;9.024;2023-08-06T07:44:06;1.10;;;0.47;;
15667;SDS011;7934;48.710;9.024;2023-08-06T07:46:33;0.30;;;0.30;;
15667;SDS011;7934;48.710;9.024;2023-08-06T07:49:00;0.83;;;0.20;;
15667;SDS011;7934;48.710;9.024;2023-08-06T07:51:28;0.93;;;0.30;;
15667;SDS011;7934;48.710;9.024;2023-08-06T07:53:55;0.40;;;0.40;;
15667;SDS011;7934;48.710;9.024;2023-08-06T07:56:24;0.30;;;0.30;;
15667;SDS011;7934;48.710;9.024;2023-08-06T07:58:51;0.30;;;0.30;;
15667;SDS011;7934;48.710;9.024;2023-08-06T08:01:18;0.10;;;0.10;;
15667;SDS011;7934;48.710;9.024;2023-08-06T08:03:45;0.30;;;0.30;;
15667;SDS011;7934;48.710;9.024;2023-08-06T08:06:12;0.30;;;0.30;;
15667;SDS011;7934;48.710;9.024;2023-08-06T08:08:39;0.20;;;0.20;;
15667;SDS011;7934;48.710;9.024;2023-08-06T08:11:07;0.30;;;0.10;;
15667;SDS011;7934;48.710;9.024;2023-08-06T08:13:35;0.50;;;0.50;;
15667;SDS011;7934;48.710;9.024;2023-08-06T08:16:03;0.20;;;0.20;;
15667;SDS011;7934;48.710;9.024;2023-08-06T08:18:30;0.07;;;0.07;;
15667;SDS011;7934;48.710;9.024;2023-08-06T08:20:57;0.27;;;0.20;;
15667;SDS011;7934;48.710;9.024;2023-08-06T08:23:24;0.20;;;0.20;;
15667;SDS011;7934;48.710;9.024;2023-08-06T08:25:52;0.30;;;0.07;;
15667;SDS011;7934;48.710;9.024;2023-08-06T08:28:19;0.20;;;0.20;;
15667;SDS011;7934;48.710;9.024;2023-08-06T08:30:48;0.20;;;0.20;;
15667;SDS011;7934;48.710;9.024;2023-08-06T08:33:15;0.57;;;0.30;;
15667;SDS011;7934;48.710;9.024;2023-08-06T08:35:42;1.70;;;0.20;;
15667;SDS011;7934;48.710;9.024;2023-08-06T08:38:09;0.20;;;0.20;;
15667;SDS011;7934;48.710;9.024;2023-08-06T08:40:37;0.17;;;0.17;;
15667;SDS011;7934;48.710;9.024;2023-08-06T08:43:07;0.20;;;0.15;;
15667;SDS011;7934;48.710;9.024;2023-08-06T08:45:35;0.40;;;0.23;;
15667;SDS011;7934;48.710;9.024;2023-08-06T08:48:07;0.20;;;0.20;;
15667;SDS011;7934;48.710;9.024;2023-08-06T08:50:35;0.23;;;0.23;;
15667;SDS011;7934;48.710;9.024;2023-08-06T08:53:02;0.10;;;0.10;;
15667;SDS011;7934;48.710;9.024;2023-08-06T08:55:29;0.10;;;0.10;;
15667;SDS011;7934;48.710;9.024;2023-08-06T08:57:56;0.17;;;0.17;;
15667;SDS011;7934;48.710;9.024;2023-08-06T09:00:24;0.27;;;0.27;;
15667;SDS011;7934;48.710;9.024;2023-08-06T09:02:54;0.13;;;0.13;;
15667;SDS011;7934;48.710;9.024;2023-08-06T09:05:23;1.23;;;0.50;;
15667;SDS011;7934;48.710;9.024;2023-08-06T09:07:51;0.10;;;0.03;;
15667;SDS011;7934;48.710;9.024;2023-08-06T09:10:20;1.43;;;0.10;;
15667;SDS011;7934;48.710;9.024;2023-08-06T09:12:49;0.10;;;0.10;;
15667;SDS011;7934;48.710;9.024;2023-08-06T09:15:18;0.20;;;0.20;;
15667;SDS011;7934;48.710;9.024;2023-08-06T09:17:45;0.77;;;0.10;;
15667;SDS011;7934;48.710;9.024;2023-08-06T09:20:12;0.20;;;0.20;;
15667;SDS011;7934;48.710;9.024;2023-08-06T09:22:41;0.00;;;0.00;;
15667;SDS011;7934;48.710;9.024;2023-08-06T09:25:09;1.10;;;0.13;;
15667;SDS011;7934;48.710;9.024;2023-08-06T09:27:38;0.83;;;0.40;;
15667;SDS011;7934;48.710;9.024;2023-08-06T09:30:06;0.20;;;0.20;;
15667;SDS011;7934;48.710;9.024;2023-08-06T09:32:46;2.20;;;0.47;;
15667;SDS011;7934;48.710;9.024;2023-08-06T09:35:16;1.80;;;0.20;;
15667;SDS011;7934;48.710;9.024;2023-08-06T09:37:45;0.10;;;0.10;;
15667;SDS011;7934;48.710;9.024;2023-08-06T09:40:24;0.10;;;0.10;;
15667;SDS011;7934;48.710;9.024;2023-08-06T09:42:51;0.30;;;0.30;;
15667;SDS011;7934;48.710;9.024;2023-08-06T09:45:18;0.50;;;0.33;;
15667;SDS011;7934;48.710;9.024;2023-08-06T09:47:46;0.17;;;0.17;;
15667;SDS011;7934;48.710;9.024;2023-08-06T09:50:17;0.93;;;0.10;;
15667;SDS011;7934;48.710;9.024;2023-08-06T09:52:46;0.40;;;0.40;;
15667;SDS011;7934;48.710;9.024;2023-08-06T09:55:13;0.10;;;0.10;;
15667;SDS011;7934;48.710;9.024;2023-08-06T09:57:41;0.57;;;0.30;;
15667;SDS011;7934;48.710;9.024;2023-08-06T10:00:08;0.20;;;0.20;;
15667;SDS011;7934;48.710;9.024;2023-08-06T10:02:36;1.33;;;0.10;;
15667;SDS011;7934;48.710;9.024;2023-08-06T10:05:04;0.40;;;0.20;;
15667;SDS011;7934;48.710;9.024;2023-08-06T10:07:32;0.40;;;0.40;;
15667;SDS011;7934;48.710;9.024;2023-08-06T10:10:00;0.20;;;0.20;;
15667;SDS011;7934;48.710;9.024;2023-08-06T10:12:28;0.17;;;0.17;;
15667;SDS011;7934;48.710;9.024;2023-08-06T10:14:57;0.37;;;0.37;;
15667;SDS011;7934;48.710;9.024;2023-08-06T10:17:25;0.50;;;0.50;;
15667;SDS011;7934;48.710;9.024;2023-08-06T10:19:52;2.07;;;0.20;;
15667;SDS011;7934;48.710;9.024;2023-08-06T10:22:21;0.93;;;0.40;;
15667;SDS011;7934;48.710;9.024;2023-08-06T10:24:49;0.10;;;0.10;;
15667;SDS011;7934;48.710;9.024;2023-08-06T10:27:23;0.20;;;0.20;;
15667;SDS011;7934;48.710;9.024;2023-08-06T10:29:50;0.20;;;0.20;;
15667;SDS011;7934;48.710;9.024;2023-08-06T10:32:17;0.27;;;0.20;;
15667;SDS011;7934;48.710;9.024;2023-08-06T10:34:54;0.00;;;0.00;;
15667;SDS011;7934;48.710;9.024;2023-08-06T10:37:22;0.20;;;0.20;;
15667;SDS011;7934;48.710;9.024;2023-08-06T10:39:49;0.30;;;0.30;;
15667;SDS011;7934;48.710;9.024;2023-08-06T10:42:28;0.60;;;0.23;;
15667;SDS011;7934;48.710;9.024;2023-08-06T10:45:11;1.73;;;0.47;;
15667;SDS011;7934;48.710;9.024;2023-08-06T10:47:39;1.40;;;0.33;;
15667;SDS011;7934;48.710;9.024;2023-08-06T10:50:06;0.17;;;0.17;;
15667;SDS011;7934;48.710;9.024;2023-08-06T10:52:34;0.40;;;0.40;;
15667;SDS011;7934;48.710;9.024;2023-08-06T10:55:02;0.60;;;0.50;;
15667;SDS011;7934;48.710;9.024;2023-08-06T10:57:30;0.43;;;0.43;;
15667;SDS011;7934;48.710;9.024;2023-08-06T10:59:57;2.23;;;0.40;;
15667;SDS011;7934;48.710;9.024;2023-08-06T11:02:25;0.50;;;0.50;;
15667;SDS011;7934;48.710;9.024;2023-08-06T11:04:52;1.97;;;0.60;;
15667;SDS011;7934;48.710;9.024;2023-08-06T11:07:19;1.70;;;0.33;;
15667;SDS011;7934;48.710;9.024;2023-08-06T11:09:49;0.40;;;0.40;;
15667;SDS011;7934;48.710;9.024;2023-08-06T11:12:18;0.20;;;0.20;;
15667;SDS011;7934;48.710;9.024;2023-08-06T11:14:50;0.30;;;0.30;;
15667;SDS011;7934;48.710;9.024;2023-08-06T11:17:18;0.57;;;0.30;;
15667;SDS011;7934;48.710;9.024;2023-08-06T11:19:45;0.20;;;0.20;;
15667;SDS011;7934;48.710;9.024;2023-08-06T11:22:13;0.30;;;0.30;;
15667;SDS011;7934;48.710;9.024;2023-08-06T11:24:41;1.17;;;0.40;;
15667;SDS011;7934;48.710;9.024;2023-08-06T11:27:11;0.60;;;0.60;;
15667;SDS011;7934;48.710;9.024;2023-08-06T11:29:40;0.77;;;0.70;;
15667;SDS011;7934;48.710;9.024;2023-08-06T11:32:09;0.63;;;0.63;;
15667;SDS011;7934;48.710;9.024;2023-08-06T11:34:36;1.80;;;0.87;;
15667;SDS011;7934;48.710;9.024;2023-08-06T11:37:03;0.90;;;0.87;;
15667;SDS011;7934;48.710;9.024;2023-08-06T11:39:32;0.70;;;0.70;;
15667;SDS011;7934;48.710;9.024;2023-08-06T11:41:59;1.40;;;0.97;;
15667;SDS011;7934;48.710;9.024;2023-08-06T11:44:29;0.80;;;0.80;;
15667;SDS011;7934;48.710;9.024;2023-08-06T11:46:58;0.73;;;0.73;;
15667;SDS011;7934;48.710;9.024;2023-08-06T11:49:40;0.80;;;0.80;;
15667;SDS011;7934;48.710;9.024;2023-08-06T11:52:18;0.60;;;0.60;;
15667;SDS011;7934;48.710;9.024;2023-08-06T11:54:46;0.80;;;0.80;;
15667;SDS011;7934;48.710;9.024;2023-08-06T11:57:14;0.80;;;0.80;;
15667;SDS011;7934;48.710;9.024;2023-08-06T11:59:42;0.80;;;0.80;;
15667;SDS011;7934;48.710;9.024;2023-08-06T12:02:09;0.70;;;0.70;;
15667;SDS011;7934;48.710;9.024;2023-08-06T12:07:27;0.60;;;0.60;;
15667;SDS011;7934;48.710;9.024;2023-08-06T12:09:54;1.03;;;0.50;;
15667;SDS011;7934;48.710;9.024;2023-08-06T12:12:21;1.17;;;0.80;;
15667;SDS011;7934;48.710;9.024;2023-08-06T12:14:48;1.70;;;0.73;;
15667;SDS011;7934;48.710;9.024;2023-08-06T12:17:15;0.50;;;0.50;;
15667;SDS011;7934;48.710;9.024;2023-08-06T12:19:44;0.80;;;0.80;;
15667;SDS011;7934;48.710;9.024;2023-08-06T12:22:11;0.83;;;0.83;;
15667;SDS011;7934;48.710;9.024;2023-08-06T12:24:43;0.80;;;0.80;;
15667;SDS011;7934;48.710;9.024;2023-08-06T12:27:10;1.37;;;0.70;;
15667;SDS011;7934;48.710;9.024;2023-08-06T12:29:40;2.90;;;0.90;;
15667;SDS011;7934;48.710;9.024;2023-08-06T12:32:07;0.70;;;0.70;;
15667;SDS011;7934;48.710;9.024;2023-08-06T12:34:34;1.00;;;0.90;;
15667;SDS011;7934;48.710;9.024;2023-08-06T12:37:02;0.63;;;0.63;;
15667;SDS011;7934;48.710;9.024;2023-08-06T12:39:29;0.63;;;0.60;;
15667;SDS011;7934;48.710;9.024;2023-08-06T12:41:59;0.87;;;0.60;;
15667;SDS011;7934;48.710;9.024;2023-08-06T12:44:26;1.03;;;1.03;;
15667;SDS011;7934;48.710;9.024;2023-08-06T12:46:53;0.70;;;0.70;;
15667;SDS011;7934;48.710;9.024;2023-08-06T12:49:20;0.73;;;0.73;;
15667;SDS011;7934;48.710;9.024;2023-08-06T12:51:48;0.90;;;0.90;;
15667;SDS011;7934;48.710;9.024;2023-08-06T12:54:16;2.50;;;1.10;;
15667;SDS011;7934;48.710;9.024;2023-08-06T12:56:43;0.70;;;0.70;;
15667;SDS011;7934;48.710;9.024;2023-08-06T12:59:12;3.83;;;0.70;;
15667;SDS011;7934;48.710;9.024;2023-08-06T13:01:39;0.93;;;0.93;;
15667;SDS011;7934;48.710;9.024;2023-08-06T13:04:06;0.87;;;0.87;;
15667;SDS011;7934;48.710;9.024;2023-08-06T13:06:33;0.90;;;0.90;;
15667;SDS011;7934;48.710;9.024;2023-08-06T13:09:01;0.60;;;0.60;;
15667;SDS011;7934;48.710;9.024;2023-08-06T13:11:29;0.80;;;0.80;;
15667;SDS011;7934;48.710;9.024;2023-08-06T13:13:58;0.83;;;0.83;;
15667;SDS011;7934;48.710;9.024;2023-08-06T13:16:27;0.63;;;0.63;;
15667;SDS011;7934;48.710;9.024;2023-08-06T13:18:54;2.03;;;0.90;;
15667;SDS011;7934;48.710;9.024;2023-08-06T13:21:21;0.80;;;0.80;;
15667;SDS011;7934;48.710;9.024;2023-08-06T13:23:48;1.00;;;0.90;;
15667;SDS011;7934;48.710;9.024;2023-08-06T13:26:15;0.60;;;0.60;;
15667;SDS011;7934;48.710;9.024;2023-08-06T13:28:43;0.80;;;0.80;;
15667;SDS011;7934;48.710;9.024;2023-08-06T13:31:10;0.77;;;0.77;;
15667;SDS011;7934;48.710;9.024;2023-08-06T13:33:38;0.70;;;0.70;;
15667;SDS011;7934;48.710;9.024;2023-08-06T13:36:05;0.80;;;0.80;;
15667;SDS011;7934;48.710;9.024;2023-08-06T13:38:32;0.70;;;0.70;;
15667;SDS011;7934;48.710;9.024;2023-08-06T13:41:00;0.60;;;0.60;;
15667;SDS011;7934;48.710;9.024;2023-08-06T13:43:28;0.80;;;0.60;;
15667;SDS011;7934;48.710;9.024;2023-08-06T13:45:55;0.70;;;0.70;;
15667;SDS011;7934;48.710;9.024;2023-08-06T13:48:22;0.83;;;0.60;;
15667;SDS011;7934;48.710;9.024;2023-08-06T13:50:51;1.23;;;0.60;;
15667;SDS011;7934;48.710;9.024;2023-08-06T13:53:18;0.50;;;0.50;;
15667;SDS011;7934;48.710;9.024;2023-08-06T13:55:45;0.60;;;0.60;;
15667;SDS011;7934;48.710;9.024;2023-08-06T13:58:13;2.80;;;0.67;;
15667;SDS011;7934;48.710;9.024;2023-08-06T14:00:40;0.53;;;0.53;;
15667;SDS011;7934;48.710;9.024;2023-08-06T14:03:09;1.73;;;0.80;;
15667;SDS011;7934;48.710;9.024;2023-08-06T14:05:36;1.03;;;0.73;;
15667;SDS011;7934;48.710;9.024;2023-08-06T14:08:06;1.43;;;0.60;;
15667;SDS011;7934;48.710;9.024;2023-08-06T14:10:33;0.93;;;0.80;;
15667;SDS011;7934;48.710;9.024;2023-08-06T14:13:01;0.85;;;0.85;;
15667;SDS011;7934;48.710;9.024;2023-08-06T14:15:28;0.70;;;0.70;;
15667;SDS011;7934;48.710;9.024;2023-08-06T14:17:55;0.97;;;0.97;;
15667;SDS011;7934;48.710;9.024;2023-08-06T14:20:22;0.90;;;0.90;;
15667;SDS011;7934;48.710;9.024;2023-08-06T14:22:49;0.70;;;0.70;;
15667;SDS011;7934;48.710;9.024;2023-08-06T14:25:18;0.80;;;0.80;;
15667;SDS011;7934;48.710;9.024;2023-08-06T14:27:45;0.53;;;0.53;;
15667;SDS011;7934;48.710;9.024;2023-08-06T14:30:12;0.90;;;0.90;;
15667;SDS011;7934;48.710;9.024;2023-08-06T14:32:39;1.00;;;1.00;;
15667;SDS011;7934;48.710;9.024;2023-08-06T14:35:07;0.70;;;0.67;;
15667;SDS011;7934;48.710;9.024;2023-08-06T14:37:34;1.60;;;0.70;;
15667;SDS011;7934;48.710;9.024;2023-08-06T14:40:01;1.13;;;1.00;;
15667;SDS011;7934;48.710;9.024;2023-08-06T14:42:30;2.13;;;1.00;;
15667;SDS011;7934;48.710;9.024;2023-08-06T14:44:57;0.80;;;0.80;;
15667;SDS011;7934;48.710;9.024;2023-08-06T14:47:24;1.00;;;1.00;;
15667;SDS011;7934;48.710;9.024;2023-08-06T14:49:51;1.13;;;0.90;;
15667;SDS011;7934;48.710;9.024;2023-08-06T14:52:19;2.10;;;0.80;;
15667;SDS011;7934;48.710;9.024;2023-08-06T14:54:46;1.03;;;1.00;;
15667;SDS011;7934;48.710;9.024;2023-08-06T14:57:13;0.90;;;0.90;;
15667;SDS011;7934;48.710;9.024;2023-08-06T14:59:42;1.27;;;1.07;;
15667;SDS011;7934;48.710;9.024;2023-08-06T15:02:09;0.77;;;0.77;;
15667;SDS011;7934;48.710;9.024;2023-08-06T15:04:36;5.37;;;0.93;;
15667;SDS011;7934;48.710;9.024;2023-08-06T15:07:03;1.00;;;1.00;;